createdAt,value
2017-03-26T21:07:02.221Z,7.37
2017-03-26T21:08:06.019Z,7.31
2017-03-26T21:09:09.962Z,6.31
2017-03-26T21:10:13.861Z,10.37
2017-03-26T21:11:17.743Z,7.60
2017-03-26T21:12:21.592Z,8.66
2017-03-26T21:13:25.603Z,9.53
2017-03-26T21:14:29.341Z,10.79
2017-03-26T21:15:33.153Z,12.87
2017-03-26T21:16:36.971Z,8.83
2017-03-26T21:17:40.923Z,6.19
2017-03-26T21:19:12.475Z,6.23
2017-03-26T21:20:16.908Z,10.73
2017-03-26T21:21:20.842Z,11.44
2017-03-26T21:22:24.712Z,7.71
2017-03-26T21:23:28.209Z,9.37
2017-03-26T21:24:32.109Z,6.29
2017-03-26T21:25:36.178Z,11.43
2017-03-26T21:26:39.835Z,7.44
2017-03-26T21:27:43.727Z,6.33
2017-03-26T21:28:47.376Z,7.26
2017-03-26T21:29:51.366Z,7.29
2017-03-26T21:30:55.133Z,10.49
2017-03-26T21:31:58.949Z,7.90
2017-03-26T21:33:03.649Z,5.90
2017-03-26T21:34:07.370Z,9.39
2017-03-26T21:35:11.504Z,7.93
2017-03-26T21:36:15.182Z,9.71
2017-03-26T21:37:19.179Z,6.10
2017-03-26T21:38:22.969Z,10.03
2017-03-26T21:39:26.645Z,7.57
2017-03-26T21:40:31.008Z,6.61
2017-03-26T21:41:34.493Z,7.49
2017-03-26T21:42:37.540Z,7.36
2017-03-26T21:50:58.232Z,4.73
2017-03-26T21:52:01.407Z,2.10
2017-03-26T21:53:05.048Z,3.33
2017-03-26T21:54:08.973Z,3.38
2017-03-26T21:55:13.794Z,3.47
2017-03-26T21:56:17.941Z,3.45
2017-03-26T21:57:21.794Z,4.78
2017-03-26T21:58:25.607Z,3.77
2017-03-26T21:59:29.357Z,5.17
2017-03-26T22:00:33.215Z,4.48
2017-03-26T22:01:37.425Z,3.85
2017-03-26T22:02:41.292Z,5.18
2017-03-26T22:03:44.922Z,6.58
2017-03-26T22:04:48.567Z,4.63
2017-03-26T22:05:52.590Z,6.77
2017-03-26T22:06:56.414Z,5.98
2017-03-26T22:08:00.392Z,7.08
2017-03-26T22:09:04.389Z,6.05
2017-03-26T22:10:08.146Z,6.45
2017-03-26T22:11:12.241Z,5.85
2017-03-26T22:12:16.244Z,6.55
2017-03-26T22:13:20.338Z,7.72
2017-03-26T22:14:24.533Z,5.75
2017-03-26T22:15:29.075Z,6.28
2017-03-26T22:16:32.859Z,7.70
2017-03-26T22:17:37.437Z,7.73
2017-03-26T22:18:41.382Z,6.28
2017-03-26T22:19:45.427Z,7.70
2017-03-26T22:20:48.876Z,6.82
2017-03-26T22:21:52.781Z,6.23
2017-03-26T22:22:56.659Z,7.00
2017-03-26T22:24:00.632Z,6.32
2017-03-26T22:25:04.506Z,8.93
2017-03-26T22:26:08.373Z,10.32
2017-03-26T22:27:12.352Z,6.13
2017-03-26T22:28:16.458Z,8.08
2017-03-26T22:29:20.456Z,6.75
2017-03-26T22:30:24.495Z,7.65
2017-03-26T22:31:28.399Z,9.20
2017-03-26T22:32:31.894Z,6.27
2017-03-26T22:33:35.594Z,6.18
2017-03-26T22:34:39.576Z,10.53
2017-03-26T22:35:43.657Z,13.97
2017-03-26T22:36:46.929Z,17.48
2017-03-26T22:37:50.807Z,24.07
2017-03-26T22:38:55.430Z,17.92
2017-03-26T22:39:59.379Z,6.97
2017-03-26T22:41:03.381Z,8.85
2017-03-26T22:42:07.535Z,10.92
2017-03-26T22:43:11.238Z,11.35
2017-03-26T22:44:15.312Z,10.73
2017-03-26T22:45:18.985Z,10.08
2017-03-26T22:46:23.015Z,8.00
2017-03-26T22:47:26.826Z,7.88
2017-03-26T22:48:30.842Z,7.57
2017-03-26T22:49:34.823Z,7.13
2017-03-26T22:50:38.608Z,6.63
2017-03-26T22:51:42.604Z,6.75
2017-03-26T22:52:46.580Z,7.23
2017-03-26T22:53:51.015Z,6.25
2017-03-26T22:54:54.423Z,8.95
2017-03-26T22:55:58.192Z,7.22
2017-03-26T22:57:01.811Z,9.43
2017-03-26T22:58:05.515Z,7.13
2017-03-26T22:59:08.707Z,6.98
2017-03-26T23:00:12.554Z,5.88
2017-03-26T23:01:16.938Z,7.87
2017-03-26T23:02:21.200Z,12.68
2017-03-26T23:03:25.319Z,10.78
2017-03-26T23:04:29.054Z,6.57
2017-03-26T23:05:33.782Z,5.85
2017-03-26T23:06:37.457Z,8.15
2017-03-26T23:07:41.048Z,10.95
2017-03-26T23:08:45.727Z,13.07
2017-03-26T23:09:49.392Z,21.90
2017-03-26T23:10:53.245Z,12.45
2017-03-26T23:11:57.236Z,11.17
2017-03-26T23:13:01.159Z,9.05
2017-03-26T23:14:05.450Z,8.75
2017-03-26T23:15:09.296Z,9.55
2017-03-26T23:16:13.468Z,9.90
2017-03-26T23:17:17.293Z,11.38
2017-03-26T23:18:21.360Z,13.20
2017-03-26T23:19:25.239Z,7.78
2017-03-26T23:20:29.203Z,8.57
2017-03-26T23:21:33.193Z,11.88
2017-03-26T23:22:38.004Z,8.83
2017-03-26T23:23:42.756Z,9.55
2017-03-26T23:24:52.571Z,8.37
2017-03-26T23:25:56.533Z,8.88
2017-03-26T23:27:00.448Z,7.60
2017-03-26T23:28:05.396Z,8.67
2017-03-26T23:29:09.797Z,10.12
2017-03-26T23:30:14.947Z,8.75
2017-03-26T23:31:18.940Z,9.47
2017-03-26T23:32:23.146Z,11.97
2017-03-26T23:33:27.635Z,8.73
2017-03-26T23:34:31.288Z,11.50
2017-03-26T23:35:35.295Z,12.33
2017-03-26T23:36:39.249Z,9.08
2017-03-26T23:37:43.088Z,7.12
2017-03-26T23:38:47.082Z,9.60
2017-03-26T23:39:50.857Z,8.55
2017-03-26T23:40:54.816Z,7.62
2017-03-26T23:41:59.749Z,9.52
2017-03-26T23:43:04.500Z,7.73
2017-03-26T23:44:08.685Z,7.35
2017-03-26T23:45:12.581Z,4.20
2017-03-26T23:46:16.416Z,7.68
2017-03-26T23:47:21.087Z,6.33
2017-03-26T23:48:24.913Z,7.40
2017-03-26T23:49:28.808Z,8.05
2017-03-26T23:50:32.421Z,6.38
2017-03-26T23:51:36.439Z,7.05
2017-03-26T23:52:40.606Z,5.28
2017-03-26T23:53:45.034Z,5.72
2017-03-26T23:54:49.089Z,7.05
2017-03-26T23:55:53.233Z,7.43
2017-03-26T23:56:56.866Z,8.00
2017-03-26T23:58:00.767Z,10.25
2017-03-26T23:59:04.749Z,8.07
